Time;durP1;ratioP1;P1;durP2;ratioP2;P2;SDS_P1;SDS_P2;PMS_P1;PMS_P2;Temp;Humidity;BMP_temperature;BMP_pressure;BME280_temperature;BME280_humidity;BME280_pressure;Samples;Min_cycle;Max_cycle;Signal;HPM_P1;HPM_P2
2023/10/17 00:02:26;;;;;;;2.30;2.10;;;18.40;65.20;;;;;;5016456;28;20182;-69
2023/10/17 00:04:52;;;;;;;2.40;2.10;;;18.40;65.40;;;;;;4998689;28;20188;-69
2023/10/17 00:07:20;;;;;;;2.95;2.17;;;18.40;65.20;;;;;;5014136;28;20183;-69
2023/10/17 00:09:48;;;;;;;2.20;2.00;;;18.40;65.20;;;;;;5006497;28;20662;-69
2023/10/17 00:17:19;;;;;;;2.53;1.83;;;18.40;65.20;;;;;;5013850;28;20234;-69
2023/10/17 00:19:46;;;;;;;1.98;1.83;;;18.40;65.20;;;;;;5040236;28;20191;-69
2023/10/17 00:22:23;;;;;;;1.95;1.70;;;18.40;65.20;;;;;;5031002;28;20222;-69
2023/10/17 00:25:09;;;;;;;2.70;1.90;;;18.40;65.20;;;;;;5015043;28;20222;-69
2023/10/17 00:27:34;;;;;;;2.03;1.80;;;18.40;65.50;;;;;;5008111;28;20183;-69
2023/10/17 00:30:00;;;;;;;2.88;1.98;;;18.40;65.30;;;;;;4995423;28;20195;-69
2023/10/17 00:32:31;;;;;;;2.10;1.90;;;18.40;65.30;;;;;;5031503;28;20241;-69
2023/10/17 00:34:57;;;;;;;1.90;1.63;;;18.40;65.20;;;;;;5002721;28;20188;-69
2023/10/17 00:37:30;;;;;;;2.10;1.90;;;18.40;65.20;;;;;;5013982;28;20187;-69
2023/10/17 00:39:56;;;;;;;2.25;1.80;;;18.40;65.20;;;;;;5029391;28;20186;-70
2023/10/17 00:42:29;;;;;;;2.15;1.95;;;18.40;65.20;;;;;;5016757;28;20684;-69
2023/10/17 00:44:55;;;;;;;2.42;2.15;;;18.40;65.20;;;;;;5015152;28;20200;-69
2023/10/17 00:47:22;;;;;;;2.50;2.10;;;18.40;65.20;;;;;;5016939;28;20261;-69
2023/10/17 00:49:50;;;;;;;2.08;1.88;;;18.40;65.20;;;;;;5015049;28;20203;-69
2023/10/17 00:52:32;;;;;;;1.92;1.77;;;18.40;65.20;;;;;;5015654;28;20184;-69
2023/10/17 00:54:59;;;;;;;1.98;1.70;;;18.40;65.20;;;;;;5016636;28;20193;-69
2023/10/17 00:57:26;;;;;;;2.08;1.65;;;18.40;65.20;;;;;;5017662;28;20182;-69
2023/10/17 00:59:59;;;;;;;1.95;1.77;;;18.40;65.20;;;;;;5017357;28;20195;-69
2023/10/17 01:02:32;;;;;;;1.75;1.60;;;18.40;65.20;;;;;;5001122;28;20277;-70
2023/10/17 01:04:59;;;;;;;1.98;1.88;;;18.40;65.30;;;;;;5012620;28;20191;-69
2023/10/17 01:07:29;;;;;;;1.55;1.45;;;18.40;65.20;;;;;;5017343;28;20178;-70
2023/10/17 01:10:13;;;;;;;1.98;1.50;;;18.40;65.20;;;;;;5004989;28;20180;-70
2023/10/17 01:15:28;;;;;;;2.00;1.80;;;18.40;65.20;;;;;;5025088;28;20198;-69
2023/10/17 01:18:06;;;;;;;1.75;1.65;;;18.40;65.20;;;;;;5020989;28;20199;-69
2023/10/17 01:20:35;;;;;;;1.45;1.35;;;18.40;65.20;;;;;;5008494;28;20195;-69
2023/10/17 01:23:01;;;;;;;1.88;1.73;;;18.40;65.20;;;;;;5032744;28;20218;-69
2023/10/17 01:25:35;;;;;;;2.40;1.77;;;18.40;65.20;;;;;;4997863;28;20198;-70
2023/10/17 01:28:01;;;;;;;1.98;1.88;;;18.40;65.20;;;;;;5005324;28;20188;-69
2023/10/17 01:30:29;;;;;;;2.10;1.73;;;18.40;65.20;;;;;;5007175;28;20220;-69
2023/10/17 01:32:56;;;;;;;2.25;1.60;;;18.40;65.20;;;;;;5008110;28;20309;-69
2023/10/17 01:35:24;;;;;;;2.15;1.65;;;18.30;65.10;;;;;;5037866;28;20201;-70
2023/10/17 01:37:51;;;;;;;2.30;1.60;;;18.40;65.20;;;;;;5021055;28;20190;-69
2023/10/17 01:40:26;;;;;;;1.80;1.70;;;18.40;65.20;;;;;;5002995;28;20252;-69
2023/10/17 01:42:54;;;;;;;1.90;1.67;;;18.40;65.20;;;;;;5001200;28;20266;-69
2023/10/17 01:45:23;;;;;;;2.30;2.13;;;18.40;65.20;;;;;;5018914;28;20191;-69
2023/10/17 01:47:51;;;;;;;1.90;1.75;;;18.30;65.00;;;;;;5017951;28;20238;-69
2023/10/17 01:50:21;;;;;;;1.77;1.67;;;18.30;65.10;;;;;;5017066;28;20214;-69
2023/10/17 01:52:48;;;;;;;1.50;1.40;;;18.30;65.00;;;;;;5040614;28;20214;-69
2023/10/17 01:55:15;;;;;;;1.73;1.63;;;18.30;65.10;;;;;;5002371;28;20180;-69
2023/10/17 01:57:43;;;;;;;1.83;1.50;;;18.30;65.10;;;;;;5019010;28;20180;-69
2023/10/17 02:02:58;;;;;;;2.30;2.00;;;18.30;65.00;;;;;;5016322;28;20223;-69
2023/10/17 02:05:24;;;;;;;1.73;1.63;;;18.30;65.10;;;;;;5034476;28;20187;-69
2023/10/17 02:07:50;;;;;;;1.80;1.70;;;18.30;65.10;;;;;;5020763;28;20717;-69
2023/10/17 02:10:21;;;;;;;2.03;1.70;;;18.30;65.00;;;;;;5023726;28;20187;-69
2023/10/17 02:12:48;;;;;;;2.08;1.88;;;18.30;65.10;;;;;;4997106;28;20208;-68
2023/10/17 02:15:23;;;;;;;3.28;1.90;;;18.30;65.10;;;;;;5000303;28;20194;-69
2023/10/17 02:17:51;;;;;;;1.92;1.73;;;18.30;65.10;;;;;;4997106;28;20595;-69
2023/10/17 02:20:29;;;;;;;2.20;2.00;;;18.30;65.10;;;;;;5023346;28;20183;-69
2023/10/17 02:23:19;;;;;;;2.10;1.90;;;18.30;65.10;;;;;;5000141;28;20246;-70
2023/10/17 02:25:46;;;;;;;2.05;1.95;;;18.30;65.00;;;;;;5034283;28;20218;-69
2023/10/17 02:28:15;;;;;;;1.60;1.50;;;18.30;65.10;;;;;;5034040;28;20183;-69
2023/10/17 02:30:44;;;;;;;1.80;1.70;;;18.30;65.10;;;;;;4998721;28;20183;-69
2023/10/17 02:33:17;;;;;;;1.92;1.80;;;18.30;65.00;;;;;;4999689;28;20265;-69
2023/10/17 02:36:06;;;;;;;2.00;1.80;;;18.30;65.10;;;;;;5016201;28;20229;-69
2023/10/17 02:38:31;;;;;;;2.00;1.80;;;18.30;65.00;;;;;;5008600;28;20274;-69
2023/10/17 02:40:58;;;;;;;2.05;1.85;;;18.30;65.10;;;;;;5013714;28;20202;-69
2023/10/17 02:43:24;;;;;;;1.77;1.50;;;18.30;65.10;;;;;;5015285;28;20238;-69
2023/10/17 02:45:49;;;;;;;1.92;1.83;;;18.30;65.10;;;;;;5016306;28;20246;-69
2023/10/17 02:48:25;;;;;;;2.38;1.83;;;18.30;65.10;;;;;;5016020;28;20195;-69
2023/10/17 02:51:00;;;;;;;1.60;1.50;;;18.30;65.10;;;;;;4999813;28;20190;-69
2023/10/17 02:53:29;;;;;;;1.80;1.70;;;18.30;65.10;;;;;;4999012;28;20206;-69
2023/10/17 02:55:57;;;;;;;1.85;1.70;;;18.30;65.10;;;;;;5013139;28;20199;-69
2023/10/17 02:58:23;;;;;;;1.90;1.60;;;18.30;65.10;;;;;;5001107;28;20184;-69
2023/10/17 03:00:52;;;;;;;1.70;1.60;;;18.30;65.00;;;;;;5006172;28;20209;-69
2023/10/17 03:03:19;;;;;;;1.85;1.70;;;18.30;65.10;;;;;;4998263;28;20211;-69
2023/10/17 03:05:50;;;;;;;1.52;1.42;;;18.30;65.10;;;;;;5015772;28;20191;-69
2023/10/17 03:08:17;;;;;;;1.67;1.58;;;18.30;65.00;;;;;;5015807;28;20179;-70
2023/10/17 03:10:44;;;;;;;1.60;1.50;;;18.30;65.00;;;;;;4999504;28;20187;-69
2023/10/17 03:15:56;;;;;;;1.85;1.75;;;18.30;65.10;;;;;;5033406;28;20194;-69
2023/10/17 03:18:24;;;;;;;1.75;1.65;;;18.30;65.10;;;;;;5002081;28;20677;-69
2023/10/17 03:20:52;;;;;;;1.85;1.70;;;18.30;65.10;;;;;;4999267;28;20187;-69
2023/10/17 03:23:28;;;;;;;1.55;1.45;;;18.30;65.10;;;;;;5014856;28;20264;-69
2023/10/17 03:26:03;;;;;;;2.25;2.10;;;18.30;65.00;;;;;;4999138;28;20201;-69
2023/10/17 03:28:33;;;;;;;2.03;1.92;;;18.30;66.50;;;;;;5015361;28;20211;-69
2023/10/17 03:31:00;;;;;;;1.63;1.52;;;18.30;66.50;;;;;;5005270;28;20183;-69
2023/10/17 03:33:29;;;;;;;2.22;2.03;;;18.30;66.60;;;;;;4998838;28;20211;-69
2023/10/17 03:38:33;;;;;;;1.73;1.40;;;18.30;66.00;;;;;;5014966;28;20199;-69
2023/10/17 03:41:06;;;;;;;1.67;1.50;;;18.30;65.70;;;;;;4998711;28;20609;-69
2023/10/17 03:43:38;;;;;;;1.60;1.50;;;18.20;65.00;;;;;;5032209;28;20387;-69
2023/10/17 03:46:07;;;;;;;1.63;1.50;;;18.20;65.00;;;;;;5032596;28;20195;-69
2023/10/17 03:48:36;;;;;;;1.55;1.45;;;18.30;65.10;;;;;;5026612;28;20180;-69
2023/10/17 03:53:36;;;;;;;1.90;1.80;;;18.30;65.00;;;;;;5017647;28;20225;-70
2023/10/17 03:56:03;;;;;;;2.00;1.80;;;18.20;65.00;;;;;;5015131;28;20192;-69
2023/10/17 04:01:00;;;;;;;2.10;1.90;;;18.30;65.10;;;;;;5014542;28;20206;-70
2023/10/17 04:08:37;;;;;;;2.55;1.77;;;18.20;65.00;;;;;;5020898;28;20206;-69
2023/10/17 04:14:01;;;;;;;1.92;1.63;;;18.20;65.00;;;;;;5014113;28;20301;-70
2023/10/17 04:16:34;;;;;;;1.88;1.77;;;18.20;65.80;;;;;;5016048;28;20767;-69
2023/10/17 04:19:01;;;;;;;2.08;1.65;;;18.20;65.00;;;;;;5006391;28;20205;-69
2023/10/17 04:21:31;;;;;;;2.00;1.80;;;18.20;65.00;;;;;;5006600;28;20183;-69
2023/10/17 04:24:05;;;;;;;1.80;1.70;;;18.20;65.00;;;;;;5014189;28;20212;-69
2023/10/17 04:26:35;;;;;;;1.70;1.60;;;18.20;65.00;;;;;;5023088;28;20244;-69
2023/10/17 04:29:21;;;;;;;2.17;1.98;;;18.20;65.00;;;;;;5014493;28;20246;-69
2023/10/17 04:31:47;;;;;;;2.15;1.77;;;18.20;65.00;;;;;;5033673;28;20297;-69
2023/10/17 04:34:21;;;;;;;1.67;1.58;;;18.20;65.00;;;;;;5026149;28;20248;-69
2023/10/17 04:36:51;;;;;;;1.75;1.65;;;18.20;65.00;;;;;;4994554;28;20196;-69
2023/10/17 04:44:50;;;;;;;2.08;1.98;;;18.20;65.00;;;;;;5025259;28;20218;-69
2023/10/17 04:49:55;;;;;;;2.30;2.08;;;18.20;65.00;;;;;;5025243;28;20220;-69
2023/10/17 04:52:28;;;;;;;1.92;1.80;;;18.20;65.00;;;;;;5013028;28;20650;-69
2023/10/17 04:55:01;;;;;;;2.08;1.88;;;18.20;65.00;;;;;;5025668;28;20744;-69
2023/10/17 04:57:48;;;;;;;2.03;1.85;;;18.20;65.00;;;;;;5037572;28;20260;-69
2023/10/17 05:08:18;;;;;;;2.10;1.90;;;18.20;65.00;;;;;;5040614;28;20191;-70
2023/10/17 06:16:53;;;;;;;4.43;3.38;;;18.10;64.90;;;;;;5038674;28;20244;-69
2023/10/17 06:19:21;;;;;;;3.13;2.88;;;18.20;65.00;;;;;;5000343;28;20225;-69
2023/10/17 06:24:45;;;;;;;3.33;2.95;;;18.10;64.90;;;;;;5016409;28;20211;-69
2023/10/17 06:32:49;;;;;;;3.67;3.22;;;18.20;65.00;;;;;;5043300;28;20205;-69
2023/10/17 06:35:20;;;;;;;3.35;3.00;;;18.10;64.90;;;;;;5036064;28;20219;-69
2023/10/17 06:37:49;;;;;;;3.60;3.30;;;18.10;64.90;;;;;;5039161;28;20198;-69
2023/10/17 06:40:18;;;;;;;4.28;3.53;;;18.20;65.00;;;;;;5033739;28;20669;-72
2023/10/17 06:42:58;;;;;;;3.40;3.10;;;18.10;64.90;;;;;;5001590;28;20203;-69
2023/10/17 06:45:24;;;;;;;3.55;3.25;;;18.10;64.80;;;;;;5018956;28;20223;-69
2023/10/17 06:47:49;;;;;;;3.90;3.38;;;18.10;64.80;;;;;;5034012;28;20221;-69
2023/10/17 06:55:28;;;;;;;3.63;3.22;;;18.10;64.90;;;;;;5016315;28;20206;-69
2023/10/17 06:58:08;;;;;;;3.60;3.30;;;18.10;64.90;;;;;;5016070;28;20571;-70
2023/10/17 07:00:52;;;;;;;3.72;3.40;;;18.10;64.90;;;;;;4999505;28;20313;-69
2023/10/17 07:03:26;;;;;;;4.28;3.70;;;18.10;64.90;;;;;;5038455;28;20690;-69
2023/10/17 07:06:11;;;;;;;3.80;3.38;;;18.10;64.90;;;;;;5012664;28;20184;-69
2023/10/17 07:08:41;;;;;;;4.07;3.70;;;18.10;64.90;;;;;;5001818;28;20194;-69
2023/10/17 07:11:18;;;;;;;3.72;3.40;;;18.10;64.90;;;;;;5000305;28;20241;-69
2023/10/17 07:19:46;;;;;;;4.05;3.65;;;18.10;64.90;;;;;;5020273;28;20715;-69
2023/10/17 07:24:23;;;;;;;4.45;4.05;;;18.10;64.90;;;;;;5015244;28;20223;-69
2023/10/17 07:26:53;;;;;;;3.88;3.47;;;18.10;64.90;;;;;;5001890;28;20253;-69
2023/10/17 07:29:22;;;;;;;4.70;4.03;;;18.10;64.90;;;;;;5030924;28;20229;-69
2023/10/17 07:31:54;;;;;;;4.30;3.90;;;18.10;64.90;;;;;;5023195;28;20184;-69
2023/10/17 07:34:33;;;;;;;5.65;4.60;;;18.10;64.70;;;;;;5017053;28;20217;-69
2023/10/17 07:37:12;;;;;;;4.93;3.80;;;18.10;64.90;;;;;;5035977;28;20269;-69
2023/10/17 07:39:39;;;;;;;4.68;4.18;;;18.10;64.90;;;;;;5036387;28;20253;-69
2023/10/17 07:42:14;;;;;;;4.47;4.07;;;18.10;64.90;;;;;;5017806;28;20198;-70
2023/10/17 07:44:43;;;;;;;4.40;4.00;;;18.10;64.90;;;;;;5037615;28;20225;-70
2023/10/17 07:47:19;;;;;;;4.70;4.20;;;18.10;64.90;;;;;;5013822;28;20191;-69
2023/10/17 07:49:47;;;;;;;4.57;4.18;;;18.10;64.90;;;;;;5037572;28;20195;-69
2023/10/17 07:52:16;;;;;;;4.78;4.38;;;18.10;64.90;;;;;;5024509;28;20190;-69
2023/10/17 07:54:55;;;;;;;4.65;4.18;;;18.10;64.90;;;;;;5019372;28;20199;-70
2023/10/17 07:57:24;;;;;;;4.90;4.50;;;18.10;64.90;;;;;;5029704;28;20270;-69
2023/10/17 07:59:57;;;;;;;5.28;4.78;;;18.10;64.80;;;;;;5016120;28;20200;-69
2023/10/17 08:02:23;;;;;;;6.22;4.95;;;18.10;64.90;;;;;;5034445;28;20269;-69
2023/10/17 08:04:53;;;;;;;5.20;4.70;;;18.10;64.90;;;;;;5003606;28;20229;-69
2023/10/17 08:07:20;;;;;;;5.00;4.50;;;18.20;65.60;;;;;;4999764;28;20219;-71
2023/10/17 08:09:59;;;;;;;5.55;4.97;;;18.20;64.90;;;;;;5011300;28;20188;-69
2023/10/17 08:12:29;;;;;;;5.10;4.60;;;18.20;64.90;;;;;;5017131;28;20198;-69
2023/10/17 08:14:58;;;;;;;4.75;4.15;;;18.20;64.70;;;;;;5022539;28;20621;-69
2023/10/17 08:17:28;;;;;;;4.93;4.38;;;18.20;64.70;;;;;;5014292;28;20191;-69
2023/10/17 08:22:27;;;;;;;5.05;4.55;;;18.20;64.70;;;;;;5013983;28;20203;-69
2023/10/17 08:24:53;;;;;;;5.10;4.60;;;18.20;64.60;;;;;;5036366;28;20210;-69
2023/10/17 08:30:00;;;;;;;5.57;5.07;;;18.30;64.60;;;;;;5027430;28;20219;-69
2023/10/17 08:34:59;;;;;;;5.10;4.57;;;18.30;64.50;;;;;;5018817;28;20718;-69
2023/10/17 08:37:30;;;;;;;5.57;4.65;;;18.30;64.50;;;;;;4995183;28;20199;-69
2023/10/17 08:39:57;;;;;;;5.00;4.50;;;18.30;64.50;;;;;;5022461;28;20203;-69
2023/10/17 08:45:04;;;;;;;4.78;4.15;;;18.20;64.50;;;;;;5034892;28;20219;-69
2023/10/17 08:47:30;;;;;;;6.68;4.95;;;18.30;64.60;;;;;;4997857;28;20659;-69
2023/10/17 08:50:04;;;;;;;4.63;4.07;;;18.30;64.60;;;;;;5018535;28;20247;-69
2023/10/17 08:52:37;;;;;;;5.07;4.53;;;18.30;64.60;;;;;;5031282;28;20215;-69
2023/10/17 08:55:04;;;;;;;4.82;4.38;;;18.30;64.60;;;;;;5018613;28;20225;-69
2023/10/17 08:57:31;;;;;;;5.15;4.65;;;18.30;64.50;;;;;;5031557;28;20191;-69
2023/10/17 09:02:35;;;;;;;4.85;4.45;;;18.30;64.50;;;;;;5035492;28;20215;-69
2023/10/17 09:05:27;;;;;;;5.25;4.45;;;18.30;64.60;;;;;;5010508;28;20219;-69
2023/10/17 09:07:56;;;;;;;5.00;4.60;;;18.30;64.60;;;;;;5028606;28;20271;-69
2023/10/17 09:10:38;;;;;;;5.03;4.53;;;18.30;64.50;;;;;;5032551;28;20179;-70
2023/10/17 09:15:50;;;;;;;4.93;4.43;;;18.30;64.60;;;;;;5039976;28;20183;-69
2023/10/17 09:18:40;;;;;;;4.72;4.07;;;18.30;64.60;;;;;;5035777;28;20202;-69
2023/10/17 09:21:06;;;;;;;4.90;4.40;;;18.30;64.60;;;;;;5029624;28;20221;-69
2023/10/17 09:23:32;;;;;;;4.03;3.63;;;18.30;64.70;;;;;;5013292;28;20301;-69
2023/10/17 09:26:01;;;;;;;5.70;4.50;;;18.30;64.70;;;;;;5013413;28;20203;-69
2023/10/17 09:28:28;;;;;;;4.30;3.90;;;18.30;64.60;;;;;;5001292;28;20183;-69
2023/10/17 09:31:06;;;;;;;5.05;4.50;;;18.30;64.60;;;;;;5010307;28;20192;-70
2023/10/17 09:33:43;;;;;;;4.82;3.85;;;18.30;64.60;;;;;;5018662;28;20297;-70
2023/10/17 09:36:10;;;;;;;4.05;3.72;;;18.30;64.70;;;;;;5036298;28;20214;-70
2023/10/17 09:38:44;;;;;;;5.07;4.10;;;18.30;64.60;;;;;;5000247;28;20274;-70
2023/10/17 09:41:11;;;;;;;4.40;4.00;;;18.30;64.60;;;;;;5022074;28;20277;-69
2023/10/17 09:43:38;;;;;;;4.78;4.30;;;18.30;64.60;;;;;;5008543;28;20211;-69
2023/10/17 09:46:14;;;;;;;4.53;3.95;;;18.30;64.60;;;;;;5015639;28;20188;-69
2023/10/17 09:48:43;;;;;;;5.30;4.80;;;18.30;64.70;;;;;;5039117;28;20189;-69
2023/10/17 09:51:21;;;;;;;4.88;4.18;;;18.30;64.70;;;;;;5025439;28;20226;-69
2023/10/17 09:54:00;;;;;;;4.72;3.80;;;18.40;64.70;;;;;;5020245;28;20217;-69
2023/10/17 09:56:32;;;;;;;3.90;3.60;;;18.40;64.70;;;;;;5022182;28;20199;-69
2023/10/17 09:59:05;;;;;;;4.40;3.80;;;18.40;64.70;;;;;;5034928;28;20190;-69
2023/10/17 10:01:35;;;;;;;5.07;3.97;;;18.40;64.70;;;;;;5022219;28;20218;-69
2023/10/17 10:04:02;;;;;;;4.65;3.67;;;18.30;64.60;;;;;;5028258;28;20226;-69
2023/10/17 10:06:32;;;;;;;5.03;4.15;;;18.40;64.70;;;;;;5020233;28;20282;-69
2023/10/17 10:09:13;;;;;;;3.92;3.50;;;18.40;64.90;;;;;;5045738;28;20187;-69
2023/10/17 10:11:51;;;;;;;5.22;4.40;;;18.40;64.70;;;;;;5041494;28;20191;-69
2023/10/17 10:14:45;;;;;;;5.40;4.35;;;18.40;64.70;;;;;;5024899;28;20211;-69
2023/10/17 10:17:15;;;;;;;5.38;4.50;;;18.40;64.80;;;;;;5032423;28;20199;-70
2023/10/17 10:19:41;;;;;;;6.22;5.10;;;18.40;64.80;;;;;;5038518;28;20217;-69
2023/10/17 10:22:12;;;;;;;5.22;4.30;;;18.40;64.70;;;;;;5015238;28;20200;-69
2023/10/17 10:24:40;;;;;;;6.65;4.78;;;18.40;64.70;;;;;;5020209;28;20697;-69
2023/10/17 10:27:15;;;;;;;5.85;4.32;;;18.40;64.70;;;;;;5034166;28;20211;-69
2023/10/17 10:29:49;;;;;;;5.30;4.20;;;18.40;64.70;;;;;;5006080;28;20205;-69
2023/10/17 10:32:35;;;;;;;4.85;4.35;;;18.40;64.70;;;;;;5024456;28;20195;-69
2023/10/17 10:35:04;;;;;;;5.57;4.25;;;18.40;64.70;;;;;;5036753;28;20190;-69
2023/10/17 10:37:30;;;;;;;4.68;4.10;;;18.40;64.80;;;;;;5022893;28;20191;-69
2023/10/17 10:40:22;;;;;;;6.03;4.97;;;18.40;64.80;;;;;;5007663;28;20244;-69
2023/10/17 10:42:54;;;;;;;6.22;5.30;;;18.40;64.80;;;;;;5022881;28;20218;-69
2023/10/17 10:45:28;;;;;;;6.18;5.10;;;18.40;65.50;;;;;;4999266;28;20191;-69
2023/10/17 10:47:57;;;;;;;6.45;5.20;;;18.40;64.70;;;;;;5029830;28;20190;-69
2023/10/17 10:50:33;;;;;;;5.80;4.63;;;18.40;64.70;;;;;;5037552;28;20270;-69
2023/10/17 10:53:01;;;;;;;6.38;4.95;;;18.40;64.70;;;;;;5033558;28;20206;-69
2023/10/17 10:55:28;;;;;;;8.40;5.60;;;18.40;64.70;;;;;;5033621;28;20183;-69
2023/10/17 10:57:54;;;;;;;6.75;4.75;;;18.40;64.80;;;;;;5019802;28;20188;-69
2023/10/17 11:00:20;;;;;;;6.53;5.15;;;18.40;64.80;;;;;;5002561;28;20677;-69
2023/10/17 11:02:46;;;;;;;6.88;4.95;;;18.40;64.80;;;;;;5018868;28;20207;-69
2023/10/17 11:05:15;;;;;;;6.65;4.95;;;18.40;64.80;;;;;;5023180;28;20198;-69
2023/10/17 11:07:42;;;;;;;7.07;5.57;;;18.40;64.70;;;;;;5021233;28;20199;-69
2023/10/17 11:10:18;;;;;;;5.78;4.68;;;18.40;64.80;;;;;;5042229;28;20255;-69
2023/10/17 11:12:54;;;;;;;6.72;4.65;;;18.50;64.90;;;;;;5021140;28;20207;-69
2023/10/17 11:15:26;;;;;;;6.53;5.13;;;18.40;64.90;;;;;;5034921;28;20190;-69
2023/10/17 11:18:06;;;;;;;5.93;4.95;;;18.40;64.80;;;;;;5022327;28;20187;-69
2023/10/17 11:20:34;;;;;;;7.00;5.40;;;18.40;64.80;;;;;;5021964;28;20689;-69
2023/10/17 11:23:04;;;;;;;5.78;5.18;;;18.40;64.80;;;;;;5002251;28;20206;-69
2023/10/17 11:25:31;;;;;;;6.47;4.97;;;18.40;64.80;;;;;;5035692;28;20202;-69
2023/10/17 11:28:06;;;;;;;7.20;5.05;;;18.40;64.80;;;;;;5008856;28;20179;-69
2023/10/17 11:30:40;;;;;;;5.90;5.18;;;18.40;64.90;;;;;;5019526;28;20264;-69
2023/10/17 11:33:10;;;;;;;6.03;5.00;;;18.50;65.00;;;;;;5025243;28;20289;-68
2023/10/17 11:35:45;;;;;;;5.55;5.05;;;18.50;65.00;;;;;;5022457;28;20195;-69
2023/10/17 11:38:35;;;;;;;6.25;4.80;;;18.50;65.00;;;;;;4999079;28;20183;-69
2023/10/17 11:41:05;;;;;;;7.07;4.82;;;18.50;65.10;;;;;;5018663;28;20180;-69
2023/10/17 11:43:50;;;;;;;6.80;5.18;;;18.50;65.10;;;;;;5034768;28;20222;-69
2023/10/17 11:46:28;;;;;;;5.82;4.90;;;18.50;65.00;;;;;;5022523;28;20221;-69
2023/10/17 11:48:54;;;;;;;5.68;5.07;;;18.50;65.00;;;;;;5011592;28;20282;-71
2023/10/17 11:51:28;;;;;;;7.70;4.88;;;18.50;65.00;;;;;;5018349;28;20270;-69
2023/10/17 11:54:07;;;;;;;6.55;5.03;;;18.50;65.10;;;;;;5018041;28;20213;-69
2023/10/17 11:56:39;;;;;;;6.10;5.15;;;18.50;65.10;;;;;;5022265;28;20240;-69
2023/10/17 11:59:10;;;;;;;6.18;5.10;;;18.50;65.10;;;;;;5016210;28;20196;-69
2023/10/17 12:01:37;;;;;;;5.45;4.88;;;18.50;65.10;;;;;;5035534;28;20222;-69
2023/10/17 12:04:06;;;;;;;5.53;4.75;;;18.50;65.10;;;;;;4997934;28;20210;-71
2023/10/17 12:06:35;;;;;;;6.97;5.00;;;18.50;65.20;;;;;;5035874;28;20747;-69
2023/10/17 12:09:17;;;;;;;5.65;5.07;;;18.50;65.10;;;;;;5012179;28;20199;-69
2023/10/17 12:11:48;;;;;;;6.07;5.07;;;18.50;65.50;;;;;;5033963;28;20262;-69
2023/10/17 12:14:20;;;;;;;5.60;5.00;;;18.50;65.20;;;;;;5032857;28;20773;-70
2023/10/17 12:16:53;;;;;;;6.38;4.55;;;18.50;65.20;;;;;;5013396;28;20188;-69
2023/10/17 12:19:26;;;;;;;5.18;4.68;;;18.50;65.20;;;;;;5016393;28;20209;-69
2023/10/17 12:21:53;;;;;;;6.78;5.15;;;18.50;65.20;;;;;;5018234;28;20237;-69
2023/10/17 12:24:24;;;;;;;5.80;4.88;;;18.50;65.20;;;;;;5014050;28;20294;-69
2023/10/17 12:26:51;;;;;;;5.57;4.90;;;18.50;65.20;;;;;;5033736;28;20199;-69
2023/10/17 12:29:17;;;;;;;5.88;4.70;;;18.50;65.30;;;;;;5000933;28;20172;-69
2023/10/17 12:31:43;;;;;;;5.57;4.70;;;18.50;65.40;;;;;;5014219;28;20215;-69
2023/10/17 12:34:09;;;;;;;6.05;5.32;;;18.50;65.30;;;;;;5012832;28;20219;-69
2023/10/17 12:36:37;;;;;;;6.93;5.22;;;18.50;65.30;;;;;;5032075;28;20195;-70
2023/10/17 12:39:06;;;;;;;7.90;5.13;;;18.50;65.30;;;;;;5031843;28;20196;-69
2023/10/17 12:41:36;;;;;;;4.75;4.32;;;18.50;65.30;;;;;;5017311;28;20642;-70
2023/10/17 12:44:03;;;;;;;5.82;4.85;;;18.50;65.30;;;;;;5011422;28;20219;-69
2023/10/17 12:46:30;;;;;;;6.43;4.65;;;18.50;65.30;;;;;;5034848;28;20194;-69
2023/10/17 12:48:57;;;;;;;7.32;5.47;;;18.50;65.30;;;;;;5011058;28;20257;-70
2023/10/17 12:51:25;;;;;;;6.40;5.10;;;18.50;65.30;;;;;;5014042;28;20650;-69
2023/10/17 12:53:51;;;;;;;6.93;5.20;;;18.50;65.30;;;;;;4999814;28;20211;-69
2023/10/17 12:56:20;;;;;;;6.45;5.13;;;18.50;65.30;;;;;;5038240;28;20196;-69
2023/10/17 12:58:49;;;;;;;6.40;5.03;;;18.50;65.30;;;;;;5015413;28;20198;-69
2023/10/17 13:01:15;;;;;;;6.68;4.60;;;18.60;65.30;;;;;;5016455;28;20222;-69
2023/10/17 13:03:40;;;;;;;8.23;5.10;;;18.50;65.30;;;;;;5038131;28;20235;-69
2023/10/17 13:06:11;;;;;;;6.60;5.22;;;18.50;65.30;;;;;;5012321;28;20184;-69
2023/10/17 13:08:36;;;;;;;8.07;5.50;;;18.50;65.30;;;;;;5032815;28;20191;-69
2023/10/17 13:11:03;;;;;;;7.38;5.38;;;18.50;65.30;;;;;;5001984;28;20253;-69
2023/10/17 13:13:32;;;;;;;5.93;4.78;;;18.50;65.30;;;;;;5017931;28;20203;-69
2023/10/17 13:15:59;;;;;;;6.20;4.93;;;18.50;65.30;;;;;;5040337;28;20186;-69
2023/10/17 13:18:28;;;;;;;5.75;5.15;;;18.50;66.00;;;;;;5034234;28;20191;-69
2023/10/17 13:20:57;;;;;;;6.85;5.43;;;18.50;65.30;;;;;;5036957;28;20240;-70
2023/10/17 13:23:23;;;;;;;6.45;5.03;;;18.50;65.30;;;;;;5015594;28;20249;-69
2023/10/17 13:25:49;;;;;;;6.95;5.32;;;18.50;65.30;;;;;;5020267;28;20227;-69
2023/10/17 13:28:16;;;;;;;5.70;5.10;;;18.50;65.30;;;;;;5020562;28;20202;-69
2023/10/17 13:30:42;;;;;;;5.70;5.10;;;18.50;65.30;;;;;;5017565;28;20232;-70
2023/10/17 13:33:08;;;;;;;6.00;5.00;;;18.50;65.30;;;;;;5019864;28;20281;-69
2023/10/17 13:35:37;;;;;;;6.10;4.75;;;18.50;65.30;;;;;;5017484;28;20225;-70
2023/10/17 13:38:03;;;;;;;6.35;4.88;;;18.50;65.30;;;;;;5031791;28;20215;-69
2023/10/17 13:40:32;;;;;;;6.20;4.85;;;18.50;65.30;;;;;;5035360;28;20603;-69
2023/10/17 13:43:00;;;;;;;6.57;5.30;;;18.50;65.30;;;;;;5017205;28;20242;-71
2023/10/17 13:45:29;;;;;;;5.35;4.70;;;18.50;65.30;;;;;;5036872;28;20252;-70
2023/10/17 13:47:55;;;;;;;7.15;5.45;;;18.50;65.30;;;;;;5019593;28;20195;-70
2023/10/17 13:50:22;;;;;;;8.75;5.07;;;18.50;65.30;;;;;;5017647;28;20186;-69
2023/10/17 13:52:54;;;;;;;7.03;5.50;;;18.50;65.30;;;;;;5016883;28;20215;-69
2023/10/17 13:55:26;;;;;;;5.70;4.97;;;18.50;65.30;;;;;;5011601;28;20191;-69
2023/10/17 13:58:00;;;;;;;8.40;5.93;;;18.50;65.30;;;;;;5019323;28;20194;-69
2023/10/17 14:00:42;;;;;;;6.57;5.78;;;18.50;65.30;;;;;;5001075;28;20197;-69
2023/10/17 14:03:12;;;;;;;6.50;5.40;;;18.50;65.40;;;;;;5031643;28;20259;-69
2023/10/17 14:05:42;;;;;;;7.68;5.55;;;18.50;65.30;;;;;;5033275;28;20265;-69
2023/10/17 14:08:09;;;;;;;6.70;5.22;;;18.50;65.40;;;;;;5023833;28;20176;-69
2023/10/17 14:10:37;;;;;;;8.27;6.43;;;18.50;65.40;;;;;;5035711;28;20186;-69
2023/10/17 14:13:08;;;;;;;7.00;5.72;;;18.50;65.30;;;;;;5023295;28;20325;-69
2023/10/17 14:15:35;;;;;;;6.50;5.40;;;18.50;65.40;;;;;;5034492;28;20196;-69
2023/10/17 14:18:09;;;;;;;7.43;5.60;;;18.50;65.30;;;;;;5021194;28;20190;-69
2023/10/17 14:20:38;;;;;;;7.30;5.80;;;18.50;65.30;;;;;;5016311;28;20187;-69
2023/10/17 14:23:16;;;;;;;6.28;5.30;;;18.50;65.30;;;;;;5015068;28;20214;-69
2023/10/17 14:28:26;;;;;;;6.53;5.63;;;18.50;65.30;;;;;;5031148;28;20195;-70
2023/10/17 14:30:52;;;;;;;6.43;5.45;;;18.50;65.40;;;;;;5034435;28;20191;-70
2023/10/17 14:33:18;;;;;;;6.63;5.30;;;18.50;65.50;;;;;;4999821;28;20209;-69
2023/10/17 14:35:44;;;;;;;6.63;5.60;;;18.50;65.30;;;;;;5034231;28;20195;-69
2023/10/17 14:38:11;;;;;;;6.95;5.57;;;18.50;65.50;;;;;;5001734;28;20199;-70
2023/10/17 14:40:38;;;;;;;7.57;5.28;;;18.50;65.50;;;;;;5018617;28;20191;-69
2023/10/17 14:43:08;;;;;;;6.93;5.43;;;18.50;65.50;;;;;;5019383;28;20693;-69
2023/10/17 14:45:44;;;;;;;6.30;5.70;;;18.50;65.60;;;;;;5016379;28;20191;-69
2023/10/17 14:48:13;;;;;;;7.40;5.55;;;18.50;65.60;;;;;;5034458;28;20218;-69
2023/10/17 14:50:39;;;;;;;6.05;4.93;;;18.50;66.00;;;;;;5037159;28;20676;-69
2023/10/17 14:53:06;;;;;;;5.85;4.68;;;18.50;65.60;;;;;;5034999;28;20245;-68
2023/10/17 14:55:33;;;;;;;5.70;5.05;;;18.50;65.60;;;;;;5019318;28;20188;-69
2023/10/17 14:58:01;;;;;;;6.03;4.78;;;18.50;65.60;;;;;;5020592;28;20195;-69
2023/10/17 15:00:28;;;;;;;5.97;4.93;;;18.50;65.60;;;;;;5035239;28;20191;-69
2023/10/17 15:02:55;;;;;;;5.70;4.90;;;18.50;65.50;;;;;;5043097;28;20206;-70
2023/10/17 15:05:21;;;;;;;7.30;5.50;;;18.50;65.60;;;;;;5014252;28;20275;-69
2023/10/17 15:07:47;;;;;;;7.20;5.38;;;18.50;65.60;;;;;;5019352;28;20197;-69
2023/10/17 15:10:13;;;;;;;6.65;5.28;;;18.50;65.60;;;;;;5025096;28;20190;-69
2023/10/17 15:12:47;;;;;;;5.15;4.50;;;18.50;65.60;;;;;;5007598;28;20214;-69
2023/10/17 15:15:14;;;;;;;5.60;5.03;;;18.50;65.60;;;;;;5022973;28;20195;-69
2023/10/17 15:17:42;;;;;;;6.50;5.15;;;18.50;65.70;;;;;;5000705;28;20183;-69
2023/10/17 15:20:11;;;;;;;6.05;4.63;;;18.50;65.60;;;;;;5037743;28;20183;-69
2023/10/17 15:22:46;;;;;;;4.97;4.47;;;18.50;65.60;;;;;;5038768;28;20203;-69
2023/10/17 15:25:12;;;;;;;5.13;4.63;;;18.50;65.80;;;;;;5025166;28;20240;-70
2023/10/17 15:27:42;;;;;;;4.93;4.43;;;18.50;65.70;;;;;;5015653;28;20681;-69
2023/10/17 15:30:09;;;;;;;5.75;4.63;;;18.50;65.70;;;;;;5017377;28;20182;-69
2023/10/17 15:32:40;;;;;;;4.95;4.40;;;18.50;65.70;;;;;;5013936;28;20203;-69
2023/10/17 15:35:15;;;;;;;5.45;4.57;;;18.50;66.50;;;;;;5016671;28;20816;-69
2023/10/17 15:37:48;;;;;;;7.53;5.28;;;18.50;65.60;;;;;;5016319;28;20183;-69